首页
METAR-TAF:

METAR-TAF

机场 :

馬丁尼克-亞米-凱薩國際機場

法兰西堡, 馬提尼克

纬度: 14-36N, 经度: 061-00W, 海拔: 5米

当前天气观测

该预报发布于18分钟前的21:00 UTC
风速9节,风向东转东南,在东南之间变化
温度 28°C
湿度 74%
气压 1016 hPa
能见度10公里或以上
少量云层高于1600英尺
散云层高于2900英尺
多云层高于3700英尺

METAR: TFFF 182100Z AUTO 11009KT 080V140 9999 FEW016 SCT029 BKN037 28/23 Q1016 TEMPO 2500 SHRA FEW013CB BKN015

时间: 17:18 (21:18 UTC)

预报

该预报发布于5小时和18分钟前的16:00 UTC
预报有效从18日的 18点(UTC)到 19日的 18点(UTC)
风速12节,风向
能见度10公里或以上
散云层高于1800英尺
多云层高于4000英尺
短暂存在
从 18日的 18点(UTC)到 19日的 06点(UTC)
能見度: 2500
少量云层高于1300英尺, 积雨云.
多云层高于1500英尺
阵雨
几率 30% :
短暂存在
从 19日的 02点(UTC)到 19日的 08点(UTC)
风速15节,风向多变,有时为25节阵风
能見度: 1400
散云层高于1000英尺, 积雨云.
多云层高于1300英尺
雷暴, 小雨
短暂存在
从 19日的 08点(UTC)到 19日的 12点(UTC)
能見度: 4000
多云层高于1500英尺, 塔状积云.
阵雨

TAF: TFFF 181600Z 1818/1918 09012KT 9999 SCT018 BKN040 TEMPO 1818/1906 2500 SHRA FEW013CB BKN015 PROB30 TEMPO 1902/1908 VRB15G25KT 1400 -TSRA SCT010CB BKN013 TEMPO 1908/1912 4000 SHRA BKN015TCU

超过4000个机场的气象观测和天气预报(METAR&TAF报告)。

可查询的气象台以黄色和红色小点在地图上表示。

将鼠标移到小点上方,可查看气象台名称。

然后点击查看天气观测和预报。

如需切换地图:点击带黑十字的绿色按钮放大地图;点击带横线的绿色按钮缩小地图;或者点击绿色箭头查看邻近地区的地图。


METAR-TAF: